• Join FlightAware (Why Join?)
  • Login
  • US Flag 
09:44AM EDT


 

Airport Tracker/Info


-or-


 

Live Flight TrackerFlight Track Log ✈ N400PU ✈ 11-Dec-2013 ✈ KTEB - KLAF

Flight Track Log - Related Links

Times and Time Zones

All times are in EST time to prevent confusion due to time zone crossing. See the N400PU flight status page for this flight to view local times or setup timezone preferences in your user account.

Time Position Orientation Groundspeed Altitude Reporting Facility
EST Latitude Longitude Course Direction KTS MPH feet Rate Location/Type
09:09AM 40.8333 -74.0833 252° West 156 180 1,400  Level New York TRACON
09:10AM 40.8167 -74.1500 252° West 194 223 1,900 1,380 Climbing New York TRACON
09:11AM 40.8167 -74.2333 270° West 225 259 4,200 1,740 Climbing New York TRACON
09:12AM 40.8167 -74.3167 270° West 226 260 5,500 1,860 Climbing New York TRACON
09:13AM 40.8000 -74.4000 255° West 230 265 8,000 1,680 Climbing New York TRACON
09:14AM 40.7833 -74.4833 255° West 228 262 9,000 1,140 Climbing New York TRACON
09:17AM 40.7675 -74.6836 264° West 250 288 11,900 1,620 Climbing New York Center
09:18AM 40.7747 -74.7800 276° West 284 327 14,400 2,820 Climbing New York Center
09:19AM 40.7797 -74.8789 274° West 289 333 17,600 2,880 Climbing New York Center
09:20AM 40.7553 -74.9817 253° West 282 325 20,200 2,520 Climbing New York Center
09:21AM 40.7311 -75.0706 250° West 267 307 22,700 2,340 Climbing New York Center
09:22AM 40.7094 -75.1539 251° West 256 295 24,900 1,800 Climbing New York Center
09:23AM 40.6875 -75.2375 251° West 250 288 26,400 1,440 Climbing New York Center
09:24AM 40.6633 -75.3261 250° West 250 288 27,800 1,440 Climbing New York Center
09:25AM 40.6389 -75.4147 250° West 250 288 29,300 1,440 Climbing New York Center
09:26AM 40.6144 -75.5061 251° West 256 295 30,700 1,320 Climbing New York Center
09:27AM 40.5947 -75.5839 252° West 256 295 32,000 900 Climbing New York Center
09:28AM 40.5703 -75.6753 251° West 261 300 32,600 600 Climbing New York Center
09:29AM 40.5456 -75.7664 250° West 261 300 33,200 600 Climbing New York Center
09:30AM 40.5206 -75.8628 251° West 267 307 33,900 720 Climbing New York Center
09:31AM 40.4892 -75.9586 247° West 275 316 34,700 840 Climbing New York Center
09:32AM 40.4644 -76.0497 250° West 281 323 35,600 840 Climbing New York Center
09:33AM 40.4394 -76.1406 250° West 281 323 36,400 600 Climbing New York Center
09:34AM 40.4164 -76.2314 252° West 281 323 36,800 420 Climbing New York Center
09:35AM 40.3914 -76.3247 251° West 276 318 37,300 480 Climbing New York Center
09:36AM 40.3681 -76.4183 252° West 276 318 37,800 300 Climbing New York Center
09:37AM 40.3469 -76.5119 254° West 276 318 38,000 60 Climbing New York Center
09:38AM 40.3192 -76.6103 250° West 282 325 38,000  Level New York Center
09:39AM 40.2956 -76.7064 252° West 287 330 38,000  Level New York Center
09:40AM 40.2697 -76.8047 251° West 287 330 38,000  Level New York Center
09:41AM 40.2458 -76.9061 253° West 292 336 38,000  Level New York Center
09:42AM 40.2239 -77.0075 254° West 292 336 38,000  Level New York Center
09:43AM 40.2183 -77.1103 266° West 292 336 38,000  Level New York Center
09:44AM 40.2147 -77.2133 267° West 292 336 38,000  Level New York Center
09:46AM 40.2075 -77.4286 268° West 287 330 38,000  Level Cleveland Center
09:47AM 40.2031 -77.5333 267° West 288 331 38,000  Level Cleveland Center
09:48AM 40.1969 -77.6592 266° West 290 334 38,000  Level Cleveland Center
09:49AM 40.1919 -77.7642 266° West 290 334 38,000  Level Cleveland Center
09:50AM 40.1869 -77.8669 266° West 286 329 38,000  Level Cleveland Center
09:51AM 40.1825 -77.9711 267° West 287 330 38,000  Level Cleveland Center
09:52AM 40.1778 -78.0742 267° West 286 329 38,000  Level Cleveland Center
09:53AM 40.1711 -78.1994 266° West 287 330 38,000  Level Cleveland Center
09:54AM 40.1672 -78.2867 267° West 289 333 38,000  Level Cleveland Center
09:55AM 40.1606 -78.4150 266° West 293 337 38,000  Level Cleveland Center
09:56AM 40.1558 -78.5233 267° West 299 344 38,000  Level Cleveland Center
09:57AM 40.1497 -78.6319 266° West 300 345 38,000  Level Cleveland Center
09:58AM 40.1444 -78.7406 266° West 301 346 38,000  Level Cleveland Center
09:59AM 40.1389 -78.8511 266° West 304 350 38,000  Level Cleveland Center
10:00AM 40.1311 -78.9856 266° West 310 357 38,000  Level Cleveland Center
10:01AM 40.1231 -79.0983 265° West 312 359 38,000  Level Cleveland Center
10:02AM 40.1186 -79.2092 267° West 308 354 38,000  Level Cleveland Center
10:03AM 40.1122 -79.3222 266° West 312 359 38,000  Level Cleveland Center
10:05AM 40.1058 -79.4333 266° West 309 356 38,000  Level Cleveland Center
10:06AM 40.0992 -79.5464 266° West 311 358 38,000  Level Cleveland Center
10:07AM 40.0928 -79.6583 266° West 309 356 38,000  Level Cleveland Center
10:08AM 40.0836 -79.7906 265° West 305 351 38,000  Level Cleveland Center
10:09AM 40.0775 -79.9025 266° West 306 352 38,000  Level Cleveland Center
10:10AM 40.0708 -80.0133 266° West 305 351 38,000  Level Cleveland Center
10:11AM 40.0644 -80.1231 266° West 303 349 38,000  Level Cleveland Center
10:12AM 40.0569 -80.2333 265° West 303 349 38,000  Level Cleveland Center
10:13AM 40.0506 -80.3414 266° West 299 344 38,000  Level Cleveland Center
10:14AM 40.0431 -80.4503 265° West 300 345 38,000  Level Cleveland Center
10:15AM 40.0339 -80.5806 265° West 300 345 38,000  Level Cleveland Center
10:16AM 40.0261 -80.6894 265° West 300 345 38,000  Level Cleveland Center
10:17AM 40.0189 -80.7972 265° West 300 345 38,000  Level Cleveland Center
10:18AM 40.0150 -80.8786 266° West 298 343 38,000  Level Indianapolis Center
10:19AM 40.0144 -80.9881 270° West 298 343 38,000  Level Indianapolis Center
10:20AM 40.0119 -81.1008 268° West 305 351 38,000  Level Indianapolis Center
10:21AM 40.0106 -81.2097 269° West 300 345 38,000  Level Indianapolis Center
10:22AM 40.0086 -81.3211 269° West 302 348 38,000  Level Indianapolis Center
10:23AM 40.0061 -81.4314 268° West 302 348 38,000  Level Indianapolis Center
10:24AM 40.0047 -81.5419 269° West 301 346 38,000  Level Indianapolis Center
10:25AM 40.0017 -81.6703 268° West 302 348 38,000  Level Indianapolis Center
10:26AM 39.9992 -81.7814 268° West 302 348 38,000  Level Indianapolis Center
10:27AM 39.9978 -81.8731 269° West 296 341 38,000  Level Indianapolis Center
10:28AM 39.9942 -82.0044 268° West 302 348 38,000  Level Indianapolis Center
10:29AM 40.0033 -82.1128 276° West 301 346 38,000  Level Indianapolis Center
10:30AM 40.0139 -82.2219 277° West 302 348 38,000  Level Indianapolis Center
10:31AM 40.0258 -82.3311 278° West 305 351 38,000  Level Indianapolis Center
10:32AM 40.0378 -82.4400 278° West 304 350 38,000  Level Indianapolis Center
10:33AM 40.0503 -82.5714 277° West 304 350 38,000  Level Indianapolis Center
10:34AM 40.0617 -82.6811 278° West 305 351 38,000  Level Indianapolis Center
10:35AM 40.0731 -82.7903 278° West 306 352 38,000  Level Indianapolis Center
10:36AM 40.0842 -82.9003 278° West 306 352 38,000  Level Indianapolis Center
10:37AM 40.0950 -83.0100 277° West 307 353 38,000  Level Indianapolis Center
10:38AM 40.1061 -83.1211 277° West 310 357 38,000  Level Indianapolis Center
10:39AM 40.1189 -83.2536 277° West 309 356 38,000  Level Indianapolis Center
10:40AM 40.1289 -83.3631 277° West 308 354 38,000  Level Indianapolis Center
10:41AM 40.1392 -83.4728 277° West 308 354 38,000  Level Indianapolis Center
10:42AM 40.1489 -83.5831 277° West 310 357 38,000 -360 Level Indianapolis Center
10:43AM 40.1611 -83.7133 277° West 306 352 37,300 -840 Descending Indianapolis Center
10:45AM 40.1706 -83.8158 277° West 289 333 36,300 -1,020 Descending Indianapolis Center
10:46AM 40.1808 -83.9208 277° West 293 337 35,300 -1,020 Descending Indianapolis Center
10:47AM 40.1906 -84.0264 277° West 295 339 34,300 -1,020 Descending Indianapolis Center
10:48AM 40.1986 -84.1325 276° West 295 339 33,300 -1,020 Descending Indianapolis Center
10:49AM 40.2078 -84.2397 276° West 298 343 32,300 -1,080 Descending Indianapolis Center
10:50AM 40.2189 -84.3683 276° West 298 343 31,100 -1,140 Descending Indianapolis Center
10:51AM 40.2286 -84.4747 277° West 294 338 30,000 -1,080 Descending Indianapolis Center
10:52AM 40.2381 -84.5808 277° West 295 339 28,900 -1,260 Descending Indianapolis Center
10:53AM 40.2472 -84.6925 276° West 307 353 27,400 -1,500 Descending Indianapolis Center
10:54AM 40.2556 -84.8072 275° West 318 366 25,900 -1,620 Descending Indianapolis Center
10:55AM 40.2675 -84.9333 277° West 318 366 24,200 -1,620 Descending Indianapolis Center
10:56AM 40.2761 -85.0472 276° West 317 365 22,700 -1,500 Descending Indianapolis Center
10:57AM 40.2861 -85.1603 277° West 315 362 21,200 -1,260 Descending Indianapolis Center
10:58AM 40.2936 -85.2711 275° West 310 357 20,200 -600 Descending Indianapolis Center
10:59AM 40.3044 -85.4031 276° West 306 352 20,000 -600 Descending Indianapolis Center
11:00AM 40.3119 -85.5083 275° West 296 341 19,000 -1,200 Descending Indianapolis Center
11:01AM 40.3200 -85.6142 276° West 294 338 17,600 -1,740 Descending Indianapolis Center
11:02AM 40.3269 -85.7192 275° West 293 337 15,500 -2,520 Descending Indianapolis Center
11:03AM 40.3353 -85.8236 276° West 293 337 12,500 -3,060 Descending Indianapolis Center
11:04AM 40.3400 -85.9031 274° West 266 306 10,300 -2,520 Descending Chicago Center
11:05AM 40.3464 -85.9681 277° West 244 281 8,800 -1,800 Descending Chicago Center
11:05AM 40.3458 -85.9853 268° West 224 258 8,500 -1,440 Descending Chicago Center
11:06AM 40.3514 -86.0756 275° West 229 264 7,100 -1,200 Descending Chicago Center
11:07AM 40.3561 -86.1358 276° West 233 268 6,300 -1,020 Descending Chicago Center
11:07AM 40.3550 -86.1550 266° West 233 268 6,100 -1,020 Descending Chicago Center
11:08AM 40.3592 -86.2214 275° West 236 272 5,300 -1,140 Descending Chicago Center
11:08AM 40.3606 -86.2478 274° West 242 278 5,000 -900 Descending Chicago Center
11:09AM 40.3642 -86.3083 274° West 239 275 4,400 -840 Descending Chicago Center
11:09AM 40.3639 -86.3300 269° West 234 269 4,200 -360 Descending Chicago Center
11:10AM 40.3672 -86.4175 273° West 233 268 4,000 -120 Descending Chicago Center
11:11AM 40.3725 -86.4914 275° West 233 268 4,000 -120 Level Chicago Center
11:11AM 40.3725 -86.5050 270° West 230 265 3,900 -900 Descending Chicago Center
11:12AM 40.3767 -86.5692 275° West 227 261 3,100 -900 Descending Chicago Center
11:12AM 40.3764 -86.5761 267° West 199 229 3,000 -120 Descending Chicago Center
11:13AM 40.3797 -86.6356 274° West 209 241 3,000  Level Chicago Center
11:13AM 40.3781 -86.6444 256° West 174 200 3,000  Level Chicago Center
11:14AM 40.3822 -86.6956 276° West 188 216 3,000  Level Chicago Center
11:14AM 40.3819 -86.7050 268° West 171 197 3,000  Level Chicago Center
11:15AM 40.3892 -86.7517 282° West 173 199 3,000  Level Chicago Center
11:15AM 40.3906 -86.7600 282° West 143 165 3,000 -420 Level Chicago Center
11:16AM 40.3950 -86.8039 278° West 121 139 2,600 -540 Descending Chicago Center
11:16AM 40.3967 -86.8053 328° Northwest 148 170 2,500 -720 Descending Chicago Center
11:17AM 40.4017 -86.8508 278° West 119 137 1,900 -600 Descending Chicago Center
11:18AM 40.4044 -86.8892 275° West 112 129 1,400 -540 Descending Chicago Center